Time;durP1;ratioP1;P1;durP2;ratioP2;P2;SDS_P1;SDS_P2;PMS_P1;PMS_P2;Temp;Humidity;BMP_temperature;BMP_pressure;BME280_temperature;BME280_humidity;BME280_pressure;Samples;Min_cycle;Max_cycle;Signal;HPM_P1;HPM_P2
2022/05/30 00:01:08;;;;;;;;;;;;;;;28.96;21.06;100657.78;4425695;32;19945;-69
2022/05/30 00:03:34;;;;;;;;;;;;;;;29.11;21.01;100650.56;4421458;32;20011;-70
2022/05/30 00:06:00;;;;;;;;;;;;;;;29.02;21.11;100646.03;4426557;32;20004;-70
2022/05/30 00:08:25;;;;;;;;;;;;;;;29.01;21.20;100653.97;4426690;32;20322;-71
2022/05/30 00:10:51;;;;;;;;;;;;;;;29.22;21.05;100656.03;4423621;32;20043;-69
2022/05/30 00:13:17;;;;;;;;;;;;;;;29.33;20.81;100652.81;4421979;32;19965;-68
2022/05/30 00:15:42;;;;;;;;;;;;;;;28.95;21.17;100643.87;4423872;32;20504;-70
2022/05/30 00:18:09;;;;;;;;;;;;;;;28.87;21.24;100645.97;4423481;32;20339;-68
2022/05/30 00:20:36;;;;;;;;;;;;;;;29.05;21.03;100639.12;4423563;32;20313;-68
2022/05/30 00:23:02;;;;;;;;;;;;;;;28.68;21.42;100637.50;4422951;32;20298;-68
2022/05/30 00:25:28;;;;;;;;;;;;;;;28.73;21.42;100641.59;4424563;32;20045;-68
2022/05/30 00:27:54;;;;;;;;;;;;;;;28.71;21.40;100633.47;4422327;32;20853;-68
2022/05/30 00:30:19;;;;;;;;;;;;;;;28.55;21.67;100625.22;4423572;32;19959;-68
2022/05/30 00:32:45;;;;;;;;;;;;;;;28.64;21.48;100627.63;4419943;32;19969;-68
2022/05/30 00:35:11;;;;;;;;;;;;;;;28.72;21.48;100634.25;4421448;32;19993;-68
2022/05/30 00:37:38;;;;;;;;;;;;;;;28.62;21.54;100615.81;4425716;32;19972;-68
2022/05/30 00:40:05;;;;;;;;;;;;;;;28.52;21.79;100620.56;4424348;32;20018;-68
2022/05/30 00:42:31;;;;;;;;;;;;;;;28.27;22.03;100620.16;4422751;32;19995;-68
2022/05/30 00:44:57;;;;;;;;;;;;;;;28.18;22.16;100606.16;4423227;32;20025;-69
2022/05/30 00:47:25;;;;;;;;;;;;;;;28.07;22.35;100603.53;4422804;32;19957;-68
2022/05/30 00:49:51;;;;;;;;;;;;;;;28.25;22.08;100604.66;4422053;32;20007;-68
2022/05/30 00:52:18;;;;;;;;;;;;;;;28.23;22.22;100599.47;4423142;32;20299;-68
2022/05/30 00:54:47;;;;;;;;;;;;;;;28.24;22.29;100603.13;4424527;32;20316;-68
2022/05/30 00:57:20;;;;;;;;;;;;;;;28.50;21.99;100600.88;4423421;32;20035;-69
2022/05/30 00:59:53;;;;;;;;;;;;;;;27.51;23.13;100594.62;4419395;32;19964;-68
2022/05/30 01:02:21;;;;;;;;;;;;;;;27.94;22.69;100594.16;4424960;32;20770;-68
2022/05/30 01:07:34;;;;;;;;;;;;;;;27.94;22.75;100589.16;4424685;32;20004;-68
2022/05/30 01:10:02;;;;;;;;;;;;;;;27.99;22.71;100576.66;4424293;32;20351;-68
2022/05/30 01:12:49;;;;;;;;;;;;;;;28.69;21.94;100581.12;4422896;32;19957;-68
2022/05/30 01:15:16;;;;;;;;;;;;;;;28.14;22.46;100578.94;4418937;32;19999;-68
2022/05/30 01:17:49;;;;;;;;;;;;;;;28.37;22.25;100574.88;4422863;32;20073;-68
2022/05/30 01:20:22;;;;;;;;;;;;;;;27.65;23.08;100570.13;4425279;32;20738;-68
2022/05/30 01:23:01;;;;;;;;;;;;;;;27.73;23.08;100567.31;4422660;32;20406;-68
2022/05/30 01:25:47;;;;;;;;;;;;;;;27.61;23.07;100563.88;4411045;32;19950;-68
2022/05/30 01:31:03;;;;;;;;;;;;;;;27.90;22.99;100556.91;3952350;32;15728582;-70
2022/05/30 01:33:29;;;;;;;;;;;;;;;27.90;22.99;100556.91;4427889;32;20287;-69
2022/05/30 01:35:54;;;;;;;;;;;;;;;27.52;23.15;100561.47;4427891;32;19946;-69
2022/05/30 01:38:22;;;;;;;;;;;;;;;27.55;23.25;100554.56;4431569;32;20004;-69
2022/05/30 01:40:48;;;;;;;;;;;;;;;27.80;22.96;100550.03;4430929;32;20007;-69
2022/05/30 01:43:13;;;;;;;;;;;;;;;27.92;22.93;100547.66;4431010;32;19968;-69
2022/05/30 01:45:39;;;;;;;;;;;;;;;27.23;23.49;100536.66;4430357;32;19953;-69
2022/05/30 01:48:04;;;;;;;;;;;;;;;27.79;22.99;100539.78;4428971;32;20675;-69
2022/05/30 01:50:30;;;;;;;;;;;;;;;27.79;22.90;100534.00;4425635;32;20037;-69
2022/05/30 01:52:59;;;;;;;;;;;;;;;27.79;22.94;100531.13;4427639;32;20436;-69
2022/05/30 01:55:26;;;;;;;;;;;;;;;27.70;22.94;100531.59;4431272;32;19957;-69
2022/05/30 01:57:51;;;;;;;;;;;;;;;27.77;22.96;100521.47;4430117;32;19988;-69
2022/05/30 02:00:18;;;;;;;;;;;;;;;28.07;22.70;100531.22;4426072;32;19973;-69
2022/05/30 02:02:44;;;;;;;;;;;;;;;27.69;23.14;100518.50;4433533;32;20406;-69
2022/05/30 02:05:10;;;;;;;;;;;;;;;27.87;22.99;100516.75;4431090;32;19976;-69
2022/05/30 02:07:36;;;;;;;;;;;;;;;27.99;22.78;100513.03;4433050;32;19962;-70
2022/05/30 02:10:03;;;;;;;;;;;;;;;27.35;23.62;100514.84;4428747;32;20432;-69
2022/05/30 02:12:28;;;;;;;;;;;;;;;27.88;23.06;100521.97;4431851;32;19965;-70
2022/05/30 02:14:54;;;;;;;;;;;;;;;28.10;22.70;100518.50;4430037;32;19983;-70
2022/05/30 02:17:19;;;;;;;;;;;;;;;27.97;22.93;100520.69;4429122;32;19965;-70
2022/05/30 02:19:45;;;;;;;;;;;;;;;28.26;22.71;100517.28;4431011;32;19969;-70
2022/05/30 02:22:16;;;;;;;;;;;;;;;28.19;22.71;100515.09;4429364;32;19956;-69
2022/05/30 02:24:41;;;;;;;;;;;;;;;27.75;23.18;100516.25;4428465;32;20000;-70
2022/05/30 02:27:08;;;;;;;;;;;;;;;28.20;22.89;100513.00;4430704;32;19999;-70
2022/05/30 02:29:34;;;;;;;;;;;;;;;28.05;23.06;100501.31;4430310;32;20037;-70
2022/05/30 02:31:59;;;;;;;;;;;;;;;27.74;23.38;100513.91;4426444;32;20017;-70
2022/05/30 02:37:12;;;;;;;;;;;;;;;28.24;22.92;100502.63;4430500;32;20721;-70
2022/05/30 02:39:37;;;;;;;;;;;;;;;28.21;22.95;100506.66;4427248;32;20016;-70
2022/05/30 02:42:04;;;;;;;;;;;;;;;28.36;22.88;100512.53;4419009;32;19984;-70
2022/05/30 02:44:29;;;;;;;;;;;;;;;28.27;22.97;100500.69;4422278;32;20378;-70
2022/05/30 02:46:57;;;;;;;;;;;;;;;28.08;23.09;100498.06;4418541;32;20428;-70
2022/05/30 02:49:25;;;;;;;;;;;;;;;28.47;22.78;100500.66;4418458;32;19994;-70
2022/05/30 02:51:51;;;;;;;;;;;;;;;28.68;22.52;100489.00;4420175;32;20434;-70
2022/05/30 02:54:17;;;;;;;;;;;;;;;28.30;22.87;100488.78;4416479;32;19953;-69
2022/05/30 02:56:47;;;;;;;;;;;;;;;28.54;22.67;100490.50;4415911;32;20052;-70
2022/05/30 02:59:13;;;;;;;;;;;;;;;28.64;22.44;100479.94;4415848;32;20332;-70
2022/05/30 03:01:38;;;;;;;;;;;;;;;28.80;22.10;100484.44;4415368;32;19997;-69
2022/05/30 03:04:05;;;;;;;;;;;;;;;28.81;22.33;100483.12;4417637;32;19971;-70
2022/05/30 03:06:30;;;;;;;;;;;;;;;29.02;22.00;100480.87;4423064;32;19961;-69
2022/05/30 03:08:56;;;;;;;;;;;;;;;28.76;22.22;100475.34;4420831;32;19988;-69
2022/05/30 03:11:22;;;;;;;;;;;;;;;29.09;22.05;100474.37;4418285;32;19998;-69
2022/05/30 03:13:48;;;;;;;;;;;;;;;29.05;22.06;100464.50;4416464;32;21537;-69
2022/05/30 03:16:15;;;;;;;;;;;;;;;29.25;21.88;100460.69;4419229;32;21106;-69
2022/05/30 03:18:41;;;;;;;;;;;;;;;29.09;21.94;100459.09;4416829;32;20008;-69
2022/05/30 03:21:06;;;;;;;;;;;;;;;28.94;21.60;100457.69;4419992;32;19997;-68
2022/05/30 03:23:32;;;;;;;;;;;;;;;29.30;21.28;100456.84;4421056;32;19954;-69
2022/05/30 03:25:58;;;;;;;;;;;;;;;29.17;21.37;100451.97;4420032;32;20327;-68
2022/05/30 03:28:24;;;;;;;;;;;;;;;27.94;22.32;100446.63;4422721;32;19976;-69
2022/05/30 03:30:50;;;;;;;;;;;;;;;28.54;22.17;100444.94;4414060;32;19946;-70
2022/05/30 03:33:16;;;;;;;;;;;;;;;27.94;22.83;100447.41;4403812;32;20009;-70
2022/05/30 03:35:41;;;;;;;;;;;;;;;28.58;22.04;100447.47;4420386;32;20012;-70
2022/05/30 03:38:07;;;;;;;;;;;;;;;28.85;21.90;100452.44;4419065;32;20003;-70
2022/05/30 03:40:37;;;;;;;;;;;;;;;28.41;22.39;100450.06;4417572;32;19964;-70
2022/05/30 03:43:04;;;;;;;;;;;;;;;28.47;22.59;100442.78;4415205;32;20408;-69
2022/05/30 03:45:30;;;;;;;;;;;;;;;28.44;22.62;100443.87;4418483;32;19969;-69
2022/05/30 03:47:55;;;;;;;;;;;;;;;28.42;22.54;100452.38;4421255;32;20197;-69
2022/05/30 03:50:24;;;;;;;;;;;;;;;28.32;22.62;100439.75;4418864;32;20002;-70
2022/05/30 03:52:50;;;;;;;;;;;;;;;28.34;22.68;100439.19;4414855;32;20002;-70
2022/05/30 03:55:17;;;;;;;;;;;;;;;28.22;22.97;100444.53;4417932;32;19977;-70
2022/05/30 03:57:43;;;;;;;;;;;;;;;27.54;23.66;100436.59;4417254;32;20022;-70
2022/05/30 04:00:10;;;;;;;;;;;;;;;28.25;22.73;100443.38;4418986;32;19997;-69
2022/05/30 04:02:35;;;;;;;;;;;;;;;28.28;22.88;100444.34;4419203;32;20411;-69
2022/05/30 04:05:00;;;;;;;;;;;;;;;28.50;22.50;100437.97;4417066;32;20011;-69
2022/05/30 04:07:26;;;;;;;;;;;;;;;28.09;22.95;100444.63;4405683;32;19953;-69
2022/05/30 04:09:53;;;;;;;;;;;;;;;28.21;22.88;100440.09;4417882;32;20339;-69
2022/05/30 04:12:23;;;;;;;;;;;;;;;28.23;23.12;100442.41;4419790;32;19949;-69
2022/05/30 04:14:53;;;;;;;;;;;;;;;28.15;23.15;100438.69;4417006;32;20038;-70
2022/05/30 04:17:18;;;;;;;;;;;;;;;28.04;23.24;100436.87;4418560;32;19985;-70
2022/05/30 04:19:44;;;;;;;;;;;;;;;27.92;23.49;100426.94;4419386;32;19980;-71
2022/05/30 04:22:10;;;;;;;;;;;;;;;28.10;23.02;100428.06;4404544;32;19958;-69
2022/05/30 04:24:35;;;;;;;;;;;;;;;28.06;22.86;100425.50;4415598;32;20000;-69
2022/05/30 04:27:01;;;;;;;;;;;;;;;27.55;23.18;100415.06;4419140;32;19993;-69
2022/05/30 04:29:28;;;;;;;;;;;;;;;28.17;22.81;100425.22;4420048;32;20045;-69
2022/05/30 04:31:54;;;;;;;;;;;;;;;28.22;22.70;100412.69;4418098;32;21062;-69
2022/05/30 04:34:19;;;;;;;;;;;;;;;28.20;22.56;100406.72;4415274;32;20245;-69
2022/05/30 04:36:45;;;;;;;;;;;;;;;28.12;22.62;100399.31;4419071;32;20029;-69
2022/05/30 04:39:11;;;;;;;;;;;;;;;28.04;22.76;100390.59;4416701;32;19949;-69
2022/05/30 04:41:36;;;;;;;;;;;;;;;28.24;22.59;100392.66;4418705;32;20999;-69
2022/05/30 04:44:03;;;;;;;;;;;;;;;27.98;22.72;100397.88;4416509;32;19953;-69
2022/05/30 04:46:28;;;;;;;;;;;;;;;28.46;22.07;100397.03;4420736;32;20300;-69
2022/05/30 04:48:54;;;;;;;;;;;;;;;28.83;21.85;100390.59;4418120;32;20006;-69
2022/05/30 04:51:19;;;;;;;;;;;;;;;28.27;22.21;100385.72;4416394;32;20082;-69
2022/05/30 04:53:44;;;;;;;;;;;;;;;28.65;21.99;100391.69;4414497;32;20089;-69
2022/05/30 04:56:10;;;;;;;;;;;;;;;28.73;21.93;100393.28;4415991;32;19973;-69
2022/05/30 04:58:36;;;;;;;;;;;;;;;29.05;21.52;100392.81;4419474;32;20233;-69
2022/05/30 05:01:04;;;;;;;;;;;;;;;29.15;21.30;100390.94;4416119;32;20012;-69
2022/05/30 05:03:31;;;;;;;;;;;;;;;28.77;22.08;100393.69;4415392;32;19953;-69
2022/05/30 05:06:01;;;;;;;;;;;;;;;29.02;21.84;100383.13;4417040;32;20004;-69
2022/05/30 05:08:28;;;;;;;;;;;;;;;29.37;21.57;100393.09;4417733;32;20033;-69
2022/05/30 05:11:00;;;;;;;;;;;;;;;29.15;21.84;100381.47;4418639;32;19960;-69
2022/05/30 05:13:26;;;;;;;;;;;;;;;29.00;22.00;100374.25;4413863;32;19968;-69
2022/05/30 05:15:56;;;;;;;;;;;;;;;29.08;22.01;100371.38;4415179;32;20000;-69
2022/05/30 05:18:21;;;;;;;;;;;;;;;29.46;21.69;100380.13;4413389;32;20004;-69
2022/05/30 05:20:47;;;;;;;;;;;;;;;29.65;21.35;100368.94;4418716;32;21119;-69
2022/05/30 05:23:12;;;;;;;;;;;;;;;29.70;21.32;100380.34;4422241;32;20356;-70
2022/05/30 05:25:39;;;;;;;;;;;;;;;28.81;22.24;100379.59;4415507;32;20080;-69
2022/05/30 05:28:04;;;;;;;;;;;;;;;28.61;22.75;100371.03;4419521;32;19957;-69
2022/05/30 05:30:30;;;;;;;;;;;;;;;28.45;22.96;100370.22;4419089;32;20334;-69
2022/05/30 05:32:56;;;;;;;;;;;;;;;28.84;22.41;100375.56;4416061;32;19957;-69
2022/05/30 05:35:22;;;;;;;;;;;;;;;29.00;22.27;100373.47;4415302;32;20073;-69
2022/05/30 05:37:47;;;;;;;;;;;;;;;29.08;22.32;100371.38;4419020;32;20009;-69
2022/05/30 05:40:13;;;;;;;;;;;;;;;29.17;22.22;100370.81;4417151;32;19962;-69
2022/05/30 05:42:39;;;;;;;;;;;;;;;29.27;22.04;100371.81;4414975;32;20040;-69
2022/05/30 05:45:05;;;;;;;;;;;;;;;29.53;21.97;100361.97;4412935;32;20035;-69
2022/05/30 05:47:31;;;;;;;;;;;;;;;29.45;22.06;100367.00;4415988;32;20413;-69
2022/05/30 05:49:57;;;;;;;;;;;;;;;29.25;22.29;100367.94;4418752;32;19985;-69
2022/05/30 05:52:25;;;;;;;;;;;;;;;28.87;22.70;100365.72;4417117;32;20001;-69
2022/05/30 05:54:53;;;;;;;;;;;;;;;28.78;22.74;100366.25;4413383;32;20398;-69
2022/05/30 05:57:18;;;;;;;;;;;;;;;28.72;23.02;100373.59;4417360;32;20004;-69
2022/05/30 05:59:44;;;;;;;;;;;;;;;28.74;22.96;100373.78;4414295;32;19993;-70
2022/05/30 06:02:09;;;;;;;;;;;;;;;28.51;23.17;100370.03;4415062;32;20428;-69
2022/05/30 06:04:36;;;;;;;;;;;;;;;28.70;23.15;100379.97;4417510;32;20399;-70
2022/05/30 06:07:02;;;;;;;;;;;;;;;28.67;23.22;100386.91;4413987;32;19965;-69
2022/05/30 06:09:28;;;;;;;;;;;;;;;28.35;23.64;100380.72;4414417;32;19996;-69
2022/05/30 06:11:56;;;;;;;;;;;;;;;27.91;24.21;100373.34;4420465;32;19991;-69
2022/05/30 06:14:22;;;;;;;;;;;;;;;27.83;24.24;100375.38;4418640;32;20275;-69
2022/05/30 06:16:47;;;;;;;;;;;;;;;27.62;24.64;100374.66;4420034;32;20027;-69
2022/05/30 06:19:13;;;;;;;;;;;;;;;27.34;25.12;100376.69;4418965;32;19990;-70
2022/05/30 06:21:39;;;;;;;;;;;;;;;27.43;25.01;100374.09;4415464;32;20019;-70
2022/05/30 06:24:05;;;;;;;;;;;;;;;28.28;24.04;100378.56;4417581;32;19957;-70
2022/05/30 06:26:31;;;;;;;;;;;;;;;27.93;24.48;100375.66;4418109;32;19960;-70
2022/05/30 06:28:58;;;;;;;;;;;;;;;28.11;24.40;100374.62;4415799;32;19976;-70
2022/05/30 06:31:24;;;;;;;;;;;;;;;28.31;24.05;100365.06;4417249;32;20000;-70
2022/05/30 06:33:50;;;;;;;;;;;;;;;28.69;23.62;100366.81;4415801;32;19962;-70
2022/05/30 06:36:18;;;;;;;;;;;;;;;28.58;23.37;100367.16;4420592;32;20026;-70
2022/05/30 06:38:44;;;;;;;;;;;;;;;28.93;23.25;100363.41;4419286;32;20060;-70
2022/05/30 06:43:51;;;;;;;;;;;;;;;28.59;23.23;100370.84;3953634;32;15723518;-70
2022/05/30 06:46:17;;;;;;;;;;;;;;;28.59;23.23;100370.84;4432366;32;20077;-70
2022/05/30 06:48:43;;;;;;;;;;;;;;;29.09;22.41;100361.38;4432153;32;19999;-70
2022/05/30 06:51:10;;;;;;;;;;;;;;;29.52;22.21;100349.59;4432308;32;19996;-70
2022/05/30 06:53:37;;;;;;;;;;;;;;;29.45;22.33;100347.47;4428577;32;20340;-70
2022/05/30 06:56:09;;;;;;;;;;;;;;;29.79;21.77;100350.00;4430148;32;20024;-70
2022/05/30 06:58:35;;;;;;;;;;;;;;;29.58;21.76;100346.50;4430222;32;20496;-70
2022/05/30 07:01:02;;;;;;;;;;;;;;;29.45;22.13;100341.66;4431111;32;19994;-70
2022/05/30 07:03:28;;;;;;;;;;;;;;;29.72;21.78;100342.84;4430969;32;19957;-69
2022/05/30 07:05:53;;;;;;;;;;;;;;;29.28;22.34;100334.91;4427960;32;20064;-69
2022/05/30 07:08:19;;;;;;;;;;;;;;;30.12;21.25;100343.72;4429692;32;19989;-70
2022/05/30 07:10:45;;;;;;;;;;;;;;;29.54;21.46;100343.22;4429854;32;20332;-69
2022/05/30 07:13:11;;;;;;;;;;;;;;;29.46;21.46;100342.44;4426244;32;19996;-69
2022/05/30 07:15:37;;;;;;;;;;;;;;;30.05;20.79;100349.53;4431726;32;19977;-69
2022/05/30 07:18:06;;;;;;;;;;;;;;;30.03;20.86;100341.44;4429404;32;20135;-70
2022/05/30 07:20:33;;;;;;;;;;;;;;;30.18;20.39;100331.91;4429935;32;20356;-69
2022/05/30 07:22:58;;;;;;;;;;;;;;;30.37;19.89;100335.91;4431762;32;21178;-69
2022/05/30 07:25:24;;;;;;;;;;;;;;;30.02;20.45;100344.91;4431004;32;20607;-69
2022/05/30 07:27:49;;;;;;;;;;;;;;;30.32;20.04;100344.84;4429259;32;20324;-69
2022/05/30 07:30:16;;;;;;;;;;;;;;;29.75;20.23;100335.09;4430805;32;20387;-69
2022/05/30 07:32:42;;;;;;;;;;;;;;;30.00;20.10;100341.84;4433279;32;20031;-69
2022/05/30 07:35:08;;;;;;;;;;;;;;;29.96;20.33;100345.13;4432456;32;19957;-69
2022/05/30 07:37:34;;;;;;;;;;;;;;;30.07;20.21;100323.62;4432480;32;20019;-69
2022/05/30 07:40:00;;;;;;;;;;;;;;;29.98;20.70;100327.91;4426452;32;19977;-69
2022/05/30 07:42:25;;;;;;;;;;;;;;;30.20;20.41;100323.41;4426498;32;20148;-69
2022/05/30 07:44:51;;;;;;;;;;;;;;;30.84;19.89;100323.53;4429386;32;19995;-70
2022/05/30 07:47:17;;;;;;;;;;;;;;;30.49;20.17;100321.72;4418675;32;19965;-70
2022/05/30 07:49:43;;;;;;;;;;;;;;;30.40;20.36;100319.47;4431890;32;19980;-69
2022/05/30 07:52:09;;;;;;;;;;;;;;;31.09;19.81;100318.50;4429176;32;19958;-69
2022/05/30 07:54:35;;;;;;;;;;;;;;;30.54;20.08;100312.03;4421696;32;19976;-69
2022/05/30 07:57:04;;;;;;;;;;;;;;;30.50;20.17;100321.16;4417649;32;20398;-69
2022/05/30 07:59:29;;;;;;;;;;;;;;;30.41;20.21;100316.00;4418701;32;20406;-70
2022/05/30 08:01:56;;;;;;;;;;;;;;;31.16;19.61;100306.03;4420105;32;19963;-69
2022/05/30 08:04:22;;;;;;;;;;;;;;;31.04;19.59;100310.78;4418812;32;20354;-69
2022/05/30 08:06:48;;;;;;;;;;;;;;;30.59;19.77;100316.88;4420773;32;19995;-69
2022/05/30 08:09:13;;;;;;;;;;;;;;;30.46;19.95;100314.19;4417507;32;20013;-69
2022/05/30 08:11:39;;;;;;;;;;;;;;;31.06;19.39;100313.88;4418822;32;20005;-69
2022/05/30 08:14:07;;;;;;;;;;;;;;;30.59;19.94;100316.88;4418292;32;20069;-70
2022/05/30 08:16:37;;;;;;;;;;;;;;;29.89;20.51;100301.63;4416894;32;20595;-69
2022/05/30 08:19:04;;;;;;;;;;;;;;;29.89;20.51;100298.72;4417105;32;19992;-70
2022/05/30 08:21:30;;;;;;;;;;;;;;;30.24;19.97;100298.44;4419600;32;20057;-69
2022/05/30 08:23:56;;;;;;;;;;;;;;;30.53;20.05;100293.84;4418604;32;20070;-69
2022/05/30 08:26:21;;;;;;;;;;;;;;;31.23;19.47;100299.41;4416910;32;19950;-69
2022/05/30 08:28:47;;;;;;;;;;;;;;;31.70;19.06;100304.25;4419508;32;20028;-69
2022/05/30 08:31:14;;;;;;;;;;;;;;;31.77;18.78;100295.44;4418385;32;20021;-69
2022/05/30 08:33:41;;;;;;;;;;;;;;;31.05;19.12;100297.81;4419981;32;19999;-69
2022/05/30 08:36:08;;;;;;;;;;;;;;;30.36;19.38;100307.47;4417990;32;20201;-70
2022/05/30 08:38:36;;;;;;;;;;;;;;;30.41;19.53;100303.59;4418980;32;20049;-70
2022/05/30 08:43:49;;;;;;;;;;;;;;;29.91;20.17;100305.47;4415141;32;20334;-69
2022/05/30 08:46:36;;;;;;;;;;;;;;;29.77;20.38;100312.88;4419066;32;20032;-69
2022/05/30 08:56:49;;;;;;;;;;;;;;;30.25;19.99;100313.72;3952779;32;15723885;-70
2022/05/30 08:59:34;;;;;;;;;;;;;;;29.72;20.40;100313.84;4434506;32;20001;-70
2022/05/30 09:02:05;;;;;;;;;;;;;;;29.84;20.43;100320.78;4432787;32;20013;-70
2022/05/30 09:04:34;;;;;;;;;;;;;;;29.86;20.45;100306.47;4436400;32;20386;-70
2022/05/30 09:07:03;;;;;;;;;;;;;;;29.72;20.80;100313.84;4437217;32;19957;-70
2022/05/30 09:09:34;;;;;;;;;;;;;;;30.20;20.42;100303.09;4435388;32;20378;-70
2022/05/30 09:12:03;;;;;;;;;;;;;;;30.38;20.12;100298.97;4437209;32;20992;-70
2022/05/30 09:14:36;;;;;;;;;;;;;;;30.16;20.46;100300.56;4435704;32;20301;-70
2022/05/30 09:17:03;;;;;;;;;;;;;;;29.45;21.16;100301.06;4434557;32;20131;-70
2022/05/30 09:19:29;;;;;;;;;;;;;;;29.99;20.74;100297.53;4435329;32;20334;-70
2022/05/30 09:22:01;;;;;;;;;;;;;;;30.39;20.38;100288.88;4433810;32;20394;-70
2022/05/30 09:24:29;;;;;;;;;;;;;;;29.85;20.33;100295.44;4432231;32;19957;-70
2022/05/30 09:26:57;;;;;;;;;;;;;;;30.12;20.01;100293.59;4419237;32;19953;-69
2022/05/30 09:29:34;;;;;;;;;;;;;;;30.05;19.98;100291.50;4436964;32;19953;-70
2022/05/30 09:37:23;;;;;;;;;;;;;;;30.24;20.45;100286.81;3967361;31;15720276;-70
2022/05/30 09:39:52;;;;;;;;;;;;;;;30.24;20.45;100286.81;4445416;32;20012;-70
2022/05/30 09:42:22;;;;;;;;;;;;;;;30.06;20.34;100282.22;4442997;32;20314;-70
2022/05/30 09:44:49;;;;;;;;;;;;;;;29.57;20.71;100281.16;4444455;32;20921;-70
2022/05/30 09:47:16;;;;;;;;;;;;;;;29.38;20.74;100286.56;4443787;32;19957;-70
2022/05/30 09:49:45;;;;;;;;;;;;;;;29.81;20.38;100274.75;4445574;32;20460;-70
2022/05/30 09:52:30;;;;;;;;;;;;;;;30.21;20.01;100278.50;4441337;32;20424;-70
2022/05/30 09:54:56;;;;;;;;;;;;;;;30.59;19.74;100271.16;4439004;32;21110;-70
2022/05/30 09:57:24;;;;;;;;;;;;;;;30.50;19.53;100280.50;4445268;32;20287;-70
2022/05/30 09:59:52;;;;;;;;;;;;;;;30.64;19.60;100267.25;4443998;32;19964;-69
2022/05/30 10:02:22;;;;;;;;;;;;;;;30.03;20.20;100276.81;4441989;32;20331;-69
2022/05/30 10:04:54;;;;;;;;;;;;;;;30.67;19.66;100274.00;4438900;32;19965;-69
2022/05/30 10:07:20;;;;;;;;;;;;;;;30.70;19.50;100279.41;4439478;32;19957;-69
2022/05/30 10:12:38;;;;;;;;;;;;;;;31.12;19.24;100287.47;3939818;32;15725501;-69
2022/05/30 10:15:24;;;;;;;;;;;;;;;31.12;19.24;100287.47;4416742;32;19962;-70
2022/05/30 10:17:52;;;;;;;;;;;;;;;31.01;19.21;100273.44;4411282;32;20444;-69
2022/05/30 10:20:23;;;;;;;;;;;;;;;31.51;18.79;100278.66;4416508;32;19968;-69
2022/05/30 10:28:54;;;;;;;;;;;;;;;30.84;19.20;100271.22;4413083;32;20363;-69
2022/05/30 10:36:45;;;;;;;;;;;;;;;30.87;19.14;100280.87;3961956;31;15715394;-70
2022/05/30 10:39:30;;;;;;;;;;;;;;;30.87;19.14;100280.87;4435675;32;20004;-70
2022/05/30 10:42:02;;;;;;;;;;;;;;;31.14;18.71;100271.00;4438949;32;19967;-70
2022/05/30 10:44:32;;;;;;;;;;;;;;;31.33;18.55;100268.34;4437328;32;20356;-70
2022/05/30 10:47:03;;;;;;;;;;;;;;;31.52;18.34;100261.94;4437118;32;20424;-70
2022/05/30 10:49:38;;;;;;;;;;;;;;;32.22;17.98;100262.94;4437012;32;20403;-70
2022/05/30 10:52:23;;;;;;;;;;;;;;;31.89;17.95;100269.53;4436016;32;19972;-71
2022/05/30 10:54:54;;;;;;;;;;;;;;;32.49;17.45;100269.56;4434967;32;19992;-70
2022/05/30 10:57:25;;;;;;;;;;;;;;;32.87;16.88;100260.31;4436943;32;19957;-70
2022/05/30 10:59:52;;;;;;;;;;;;;;;33.04;16.83;100257.28;4437230;32;19961;-69
2022/05/30 11:02:27;;;;;;;;;;;;;;;33.59;16.17;100248.56;4435995;32;20043;-69
2022/05/30 11:04:58;;;;;;;;;;;;;;;33.07;16.48;100247.31;4436092;32;19953;-69
2022/05/30 11:07:42;;;;;;;;;;;;;;;33.35;16.33;100248.81;4436645;32;20347;-69
2022/05/30 11:12:45;;;;;;;;;;;;;;;35.27;15.18;100245.09;3952607;32;15732092;-70
2022/05/30 11:15:25;;;;;;;;;;;;;;;35.27;15.18;100245.09;4434279;32;19954;-70
2022/05/30 11:17:55;;;;;;;;;;;;;;;34.53;15.85;100248.44;4431816;32;19956;-70
2022/05/30 11:20:23;;;;;;;;;;;;;;;34.03;16.11;100248.34;4431264;32;19992;-70
2022/05/30 11:22:51;;;;;;;;;;;;;;;34.49;15.70;100257.69;4427503;32;20033;-70
2022/05/30 11:25:20;;;;;;;;;;;;;;;33.42;16.32;100250.84;4431710;32;20433;-70
2022/05/30 11:30:35;;;;;;;;;;;;;;;34.24;15.85;100252.12;3954225;32;15726661;-70
2022/05/30 11:33:21;;;;;;;;;;;;;;;34.24;15.85;100252.12;4433017;32;19968;-70
2022/05/30 11:35:51;;;;;;;;;;;;;;;33.09;16.94;100235.84;4435212;32;19956;-70
2022/05/30 11:38:38;;;;;;;;;;;;;;;31.61;18.39;100240.91;4435286;32;19965;-70
2022/05/30 11:41:24;;;;;;;;;;;;;;;31.65;18.26;100247.84;4434901;32;19949;-69
2022/05/30 11:44:03;;;;;;;;;;;;;;;31.85;18.10;100246.69;4435747;32;20012;-70
2022/05/30 11:49:06;;;;;;;;;;;;;;;33.36;16.71;100241.59;3952891;32;15722442;-70
2022/05/30 11:51:54;;;;;;;;;;;;;;;33.05;16.62;100234.75;4426895;32;19960;-70
2022/05/30 11:57:12;;;;;;;;;;;;;;;33.28;16.23;100238.06;3950432;32;15721553;-70
2022/05/30 12:02:26;;;;;;;;;;;;;;;33.84;16.03;100230.78;3952014;32;15723474;-69
2022/05/30 12:07:42;;;;;;;;;;;;;;;33.13;16.31;100232.47;3948324;32;15716007;-69
2022/05/30 12:10:15;;;;;;;;;;;;;;;33.13;16.31;100232.47;4430569;32;20076;-71
2022/05/30 12:15:49;;;;;;;;;;;;;;;32.58;17.00;100233.87;3953492;32;15723432;-70
2022/05/30 12:23:52;;;;;;;;;;;;;;;33.45;16.83;100235.03;3953066;32;15723328;-70
2022/05/30 12:26:37;;;;;;;;;;;;;;;33.45;16.83;100235.03;4431801;32;19961;-70
2022/05/30 12:29:03;;;;;;;;;;;;;;;32.38;17.78;100252.66;4435644;32;20294;-70
2022/05/30 12:31:37;;;;;;;;;;;;;;;31.72;18.51;100238.25;4434227;32;19949;-70
2022/05/30 12:34:02;;;;;;;;;;;;;;;31.34;19.26;100234.97;4432780;32;19957;-70
2022/05/30 12:36:30;;;;;;;;;;;;;;;31.30;19.44;100228.81;4433769;32;20015;-69
2022/05/30 12:41:37;;;;;;;;;;;;;;;31.57;18.77;100228.94;3951995;32;15723527;-70
2022/05/30 12:44:03;;;;;;;;;;;;;;;31.15;19.13;100226.03;4429574;32;20000;-70
2022/05/30 12:46:47;;;;;;;;;;;;;;;31.21;18.81;100217.03;4428718;32;19965;-70
2022/05/30 12:49:16;;;;;;;;;;;;;;;31.84;18.24;100224.00;4432180;32;19988;-70
2022/05/30 12:51:58;;;;;;;;;;;;;;;32.69;17.37;100226.75;4431423;32;20450;-70
2022/05/30 12:54:27;;;;;;;;;;;;;;;31.91;17.98;100220.97;4430951;32;19989;-70
2022/05/30 12:56:59;;;;;;;;;;;;;;;32.14;17.91;100220.69;4426922;32;19958;-70
2022/05/30 12:59:28;;;;;;;;;;;;;;;32.12;18.10;100203.84;4427906;32;20073;-70
2022/05/30 13:01:57;;;;;;;;;;;;;;;32.96;17.41;100212.16;4425586;32;19997;-70
2022/05/30 13:20:15;;;;;;;;;;;;;;;34.78;15.30;100213.75;3960033;31;15719267;-70
2022/05/30 13:25:19;;;;;;;;;;;;;;;33.87;16.07;100206.97;3959797;32;15723580;-70
2022/05/30 13:27:46;;;;;;;;;;;;;;;33.87;16.07;100206.97;4441927;32;20427;-70
2022/05/30 13:30:14;;;;;;;;;;;;;;;32.85;17.03;100209.78;4445412;32;20410;-70
2022/05/30 13:32:40;;;;;;;;;;;;;;;32.36;17.83;100216.75;4436154;32;20435;-70
2022/05/30 13:35:09;;;;;;;;;;;;;;;32.22;18.35;100212.66;4444917;32;20393;-70
2022/05/30 13:37:36;;;;;;;;;;;;;;;32.75;18.01;100206.84;4440983;32;20145;-69
2022/05/30 13:40:06;;;;;;;;;;;;;;;33.05;17.82;100214.34;4442122;32;20012;-70
2022/05/30 13:42:33;;;;;;;;;;;;;;;32.73;18.00;100217.56;4440279;32;20053;-70
2022/05/30 13:45:01;;;;;;;;;;;;;;;33.05;17.83;100218.03;4439607;32;19973;-70
2022/05/30 13:47:28;;;;;;;;;;;;;;;32.46;18.01;100215.41;4442928;32;20008;-70
2022/05/30 13:49:55;;;;;;;;;;;;;;;31.61;18.78;100203.88;4440833;32;20301;-70
2022/05/30 13:52:22;;;;;;;;;;;;;;;33.52;17.26;100204.94;4446832;32;20359;-70
2022/05/30 13:54:51;;;;;;;;;;;;;;;34.31;16.17;100186.97;4440190;32;20432;-69
2022/05/30 13:57:17;;;;;;;;;;;;;;;34.66;15.90;100199.00;4431389;32;19961;-69
2022/05/30 13:59:45;;;;;;;;;;;;;;;34.26;16.52;100196.81;4441237;32;19949;-69
2022/05/30 14:05:03;;;;;;;;;;;;;;;34.46;16.64;100200.47;3952826;32;15723568;-70
2022/05/30 14:07:32;;;;;;;;;;;;;;;33.70;17.26;100204.19;4426242;32;20488;-70
2022/05/30 14:09:59;;;;;;;;;;;;;;;33.84;17.19;100205.25;4426480;32;19961;-70